G. M. Dannevig — LINW — position and weather

sailwx.info

Track history (hours):
 
Tides and Currents Weather Stations Pressure Air Temp Water Temp Dewpoint Dewpoint Depression Visibility Wind Speed Wind Dir Waves Ship Positions

Oceanographic research ship G. M. Dannevig (Norway)

Detailed information on ship capabilities available from University of Delaware's Ocean Information Center.

Last reported at 2017-Mar-29 10:33 UTC. Time now 2017-Mar-30 00:57 UTC.
Position N 62°46' E 006°57'.

Length 27 m; draft 0.35 m.

Type: Dredging. MMSI: 258513000.

Date/timePositionNaut miles runAvg speedWind from/ knotsBaromVisibWave heightAir tempDewpointWater temp
2017-Mar-29 10:33N 62°46' E 006°57'5 4.6
2017-Mar-29 09:27N 62°50' E 007°05'2 2.0
2017-Mar-29 08:17N 62°50' E 007°10'2 2.2
2017-Mar-29 07:33N 62°51' E 007°07'4 4.4
2017-Mar-29 06:33N 62°52' E 006°58'1 1.4
2017-Mar-29 05:33N 62°53' E 006°58'0 0.0
2017-Mar-29 04:33N 62°53' E 006°58'0 0.0
2017-Mar-29 03:33N 62°53' E 006°58'0 0.0
2017-Mar-29 02:33N 62°53' E 006°58'0 0.0
2017-Mar-29 01:33N 62°53' E 006°58'0 0.0
2017-Mar-29 00:33N 62°53' E 006°58'0 0.0
2017-Mar-28 23:33N 62°53' E 006°58'0 0.0
2017-Mar-28 22:33N 62°53' E 006°58'0 0.0
2017-Mar-28 21:33N 62°53' E 006°58'0 0.0
2017-Mar-28 20:33N 62°53' E 006°58'0 0.0
2017-Mar-28 19:33N 62°53' E 006°58'0 0.0
2017-Mar-28 18:33N 62°53' E 006°58'0 0.0
2017-Mar-28 17:33N 62°53' E 006°58'0 0.0
2017-Mar-28 16:33N 62°53' E 006°58'0 0.0
2017-Mar-28 15:33N 62°53' E 006°58'0 0.0
2017-Mar-28 14:33N 62°53' E 006°58'0 0.0
2017-Mar-28 13:33N 62°53' E 006°58'4 4.1
2017-Mar-28 12:33N 62°52' E 006°50'3 2.7
2017-Mar-28 11:33N 62°53' E 006°44'3 3.2
2017-Mar-28 10:33N 62°49' E 006°46'1 1.4
2017-Mar-28 09:33N 62°48' E 006°46'3 1.6
2017-Mar-28 07:18N 62°46' E 006°51'  
2017-Mar-25 08:19N 62°40' E 007°01'19 0.8
2017-Mar-24 07:21N 62°38' E 006°20'2 0.1
2017-Mar-23 16:21N 62°39' E 006°17'3 3.5
2017-Mar-23 15:30N 62°42' E 006°17'4 4.0
2017-Mar-23 14:23N 62°38' E 006°19'  
Track history (hours):
 
Tides and Currents Weather Stations Pressure Air Temp Water Temp Dewpoint Dewpoint Depression Visibility Wind Speed Wind Dir Waves Ship Positions

Oceanographic research ship G. M. Dannevig (Norway)

Detailed information on ship capabilities available from University of Delaware's Ocean Information Center.

Last reported at 2017-Mar-29 10:33 UTC. Time now 2017-Mar-30 00:57 UTC.
Position N 62°46' E 006°57'.

Length 27 m; draft 0.35 m.

Type: Dredging. MMSI: 258513000.

Date/timePositionNaut miles runAvg speedWind from/ knotsBaromVisibWave heightAir tempDewpointWater temp
2017-Mar-29 10:33N 62°46' E 006°57'5 4.6
2017-Mar-29 09:27N 62°50' E 007°05'2 2.0
2017-Mar-29 08:17N 62°50' E 007°10'2 2.2
2017-Mar-29 07:33N 62°51' E 007°07'4 4.4
2017-Mar-29 06:33N 62°52' E 006°58'1 1.4
2017-Mar-29 05:33N 62°53' E 006°58'0 0.0
2017-Mar-29 04:33N 62°53' E 006°58'0 0.0
2017-Mar-29 03:33N 62°53' E 006°58'0 0.0
2017-Mar-29 02:33N 62°53' E 006°58'0 0.0
2017-Mar-29 01:33N 62°53' E 006°58'0 0.0
2017-Mar-29 00:33N 62°53' E 006°58'0 0.0
2017-Mar-28 23:33N 62°53' E 006°58'0 0.0
2017-Mar-28 22:33N 62°53' E 006°58'0 0.0
2017-Mar-28 21:33N 62°53' E 006°58'0 0.0
2017-Mar-28 20:33N 62°53' E 006°58'0 0.0
2017-Mar-28 19:33N 62°53' E 006°58'0 0.0
2017-Mar-28 18:33N 62°53' E 006°58'0 0.0
2017-Mar-28 17:33N 62°53' E 006°58'0 0.0
2017-Mar-28 16:33N 62°53' E 006°58'0 0.0
2017-Mar-28 15:33N 62°53' E 006°58'0 0.0
2017-Mar-28 14:33N 62°53' E 006°58'0 0.0
2017-Mar-28 13:33N 62°53' E 006°58'4 4.1
2017-Mar-28 12:33N 62°52' E 006°50'3 2.7
2017-Mar-28 11:33N 62°53' E 006°44'3 3.2
2017-Mar-28 10:33N 62°49' E 006°46'1 1.4
2017-Mar-28 09:33N 62°48' E 006°46'3 1.6
2017-Mar-28 07:18N 62°46' E 006°51'  
2017-Mar-25 08:19N 62°40' E 007°01'19 0.8
2017-Mar-24 07:21N 62°38' E 006°20'2 0.1
2017-Mar-23 16:21N 62°39' E 006°17'3 3.5
2017-Mar-23 15:30N 62°42' E 006°17'4 4.0
2017-Mar-23 14:23N 62°38' E 006°19'  

Dump ship's entire track history